KSHN

Sanderson Field Airport

Shelton, Washington, USA
METAR KSHN 161753Z AUTO 13004KT 10SM SCT070 OVC100 02/00 A2977 RMK AO2 SLP088 I6000 T00170000 10022 21028 51010
Observed Flight Rules
Jan-16 @ 17:53 UTC (35 minutes ago) Visual Flight Rules
Wind Visibility Clouds
130° at 4 knots 10 miles
  • Scattered at 7,000' AGL
  • Overcast at 10,000' AGL
Temperatures Readings
Current 2°C / 36°F
Dewpoint 0°C / 32°F
Humidity 87%
Altimeter 29.77" Hg
Pressure 1008.8 hPa
Elevation 82
METAR KSHN 161753Z AUTO 13004KT 10SM SCT070 OVC100 02/00 A2977 RMK AO2 SLP088 I6000 T00170000 10022 21028 51010
Observed Flight Rules
Jan-16 @ 17:53 UTC
(35 minutes ago)
VFR
Wind Visibility
130° at 4 knots 10 miles
Clouds
  • Scattered at 7,000' AGL
  • Overcast at 10,000' AGL
Temperature Dewpoint
2°C / 36°F 0°C / 32°F
Humidity Altimeter Pressure
87% 29.77" Hg 1008.8 hPa